Meath Environmental Platform

Observations for Trim Market St

Time AQI Temp °C Hum % Pres Pa CO μg/m³ H₂S μg/m³ NO μg/m³ NO₂ μg/m³ O₃ μg/m³ SO₂ μg/m³ PM1 μg/m³ PM2.5 μg/m³ PM10 μg/m³
Sunday 23 August 2026
00:27 2 16.1 63 57,633 0.26 0 1.52 11.83 52.94 0 2.14 4.37 6.19
00:26 2 16.1 63 57,634 0.29 0 1.48 12.81 54.42 0 2.14 4.37 6.86
00:25 2 16.1 63 57,635 0.24 0 1.45 9.88 54.92 0 2.85 5.86 9.53
00:23 2 16.2 63 57,638 0.25 0 1.52 11.92 53.07 0 2.14 4.37 8.2
00:22 2 16.2 63 57,641 0.26 0 1.5 11.26 53.72 0 1.43 3.88 6.19
00:21 2 16.2 63 57,646 0.24 0 1.56 9.4 55.51 0 1.43 4.37 6.19
00:20 2 16.2 63 57,646 0.25 0 1.55 9.95 54.57 0 2.14 3.88 5.52
00:08 2 16.3 63 57,631 0.28 0 1.24 11.07 53.92 0 2.14 3.38 5.53
00:07 2 16.3 63 57,627 0.24 0 1.18 8.57 55.35 0 1.43 4.37 7.53
00:06 2 16.4 63 57,623 0.23 0 1.22 9.04 55.51 0 2.14 4.87 7.53
00:05 2 16.4 63 57,623 0.23 0 1.25 12.01 58.45 0 2.85 4.87 6.86
00:03 2 16.4 63 57,620 0.25 0 1.29 12.71 61.9 0 2.14 3.88 6.19
00:02 2 16.4 63 57,619 0.25 0 1.33 10.34 57.08 0 2.14 5.36 8.86
00:01 2 16.4 63 57,615 0.23 0 1.28 10.07 55.59 0 2.14 4.37 6.19
00:00 2 16.4 63 57,615 0.26 0 1.34 10.87 57.15 0 2.14 4.37 7.53
Saturday 22 August 2026
23:57 2 16.5 63 57,616 0.26 0 1.37 11.73 55.28 0 2.85 5.86 10.2
23:55 2 16.5 63 57,616 0.28 0 1.45 12.36 54.24 0 3.56 5.86 8.86
23:50 2 16.5 63 57,631 0.27 0 1.26 19.84 70.12 0 2.14 6.37 9.54
23:49 2 16.5 63 57,635 0.3 0 1.29 12.65 52.09 0 2.14 5.38 8.2
23:47 2 16.6 63 57,646 0.25 0 1.3 20.85 52.25 0 2.85 4.88 6.86